createdAt,value
2022-08-03T00:00:37.114Z,19.05
2022-08-03T00:01:37.102Z,18.91
2022-08-03T00:02:37.123Z,18.87
2022-08-03T00:03:37.091Z,18.91
2022-08-03T00:04:37.086Z,18.83
2022-08-03T00:05:37.096Z,18.84
2022-08-03T00:06:37.428Z,18.79
2022-08-03T00:07:38.062Z,18.79
2022-08-03T00:08:40.057Z,18.65
2022-08-03T00:09:37.049Z,18.67
2022-08-03T00:10:37.039Z,18.67
2022-08-03T00:11:38.034Z,18.59
2022-08-03T00:12:37.026Z,18.64
2022-08-03T00:13:37.022Z,18.62
2022-08-03T00:14:37.018Z,18.49
2022-08-03T00:15:37.009Z,18.58
2022-08-03T00:16:37.005Z,18.49
2022-08-03T00:17:53.674Z,18.49
2022-08-03T00:18:37.994Z,18.55
2022-08-03T00:19:36.978Z,18.50
2022-08-03T00:20:37.010Z,18.55
2022-08-03T00:21:36.971Z,18.47
2022-08-03T00:22:36.959Z,18.43
2022-08-03T00:23:52.510Z,18.54
2022-08-03T00:24:37.946Z,18.50
2022-08-03T00:25:36.970Z,18.57
2022-08-03T00:26:36.942Z,18.55
2022-08-03T00:27:36.935Z,18.39
2022-08-03T00:28:36.922Z,18.52
2022-08-03T00:29:59.642Z,18.50
2022-08-03T00:30:37.921Z,18.49
2022-08-03T00:31:51.688Z,18.44
2022-08-03T00:32:38.823Z,18.52
2022-08-03T00:33:58.921Z,18.55
2022-08-03T00:34:57.228Z,18.40
2022-08-03T00:35:50.362Z,18.36
2022-08-03T00:36:37.883Z,18.46
2022-08-03T00:37:41.320Z,18.39
2022-08-03T00:38:37.855Z,18.40
2022-08-03T00:39:36.853Z,18.40
2022-08-03T00:40:36.846Z,18.37
2022-08-03T00:41:36.848Z,18.37
2022-08-03T00:42:36.827Z,18.31
2022-08-03T00:43:36.822Z,18.37
2022-08-03T00:44:36.814Z,18.42
2022-08-03T00:45:36.791Z,18.37
2022-08-03T00:46:36.815Z,18.50
2022-08-03T00:47:36.781Z,18.43
2022-08-03T00:48:36.795Z,18.37
2022-08-03T00:49:36.824Z,18.44
2022-08-03T00:50:36.781Z,18.49
2022-08-03T00:51:36.766Z,18.43
2022-08-03T00:52:36.775Z,18.36
2022-08-03T00:53:36.753Z,18.34
2022-08-03T00:54:36.739Z,18.46
2022-08-03T00:55:36.734Z,18.65
2022-08-03T00:56:36.726Z,18.84
2022-08-03T00:57:36.734Z,18.94
2022-08-03T00:58:36.710Z,18.99
2022-08-03T00:59:36.705Z,19.10
2022-08-03T01:00:36.698Z,19.11
2022-08-03T01:01:36.719Z,19.10
2022-08-03T01:02:36.686Z,19.13
2022-08-03T01:03:36.690Z,18.99
2022-08-03T01:04:36.673Z,18.90
2022-08-03T01:05:36.657Z,18.86
2022-08-03T01:06:36.659Z,18.86
2022-08-03T01:07:36.657Z,18.74
2022-08-03T01:08:36.651Z,18.64
2022-08-03T01:09:36.640Z,18.61
2022-08-03T01:10:36.626Z,18.50
2022-08-03T01:11:36.626Z,18.49
2022-08-03T01:12:37.633Z,18.37
2022-08-03T01:14:04.476Z,18.43
2022-08-03T01:14:37.601Z,18.43
2022-08-03T01:15:36.593Z,18.43
2022-08-03T01:16:37.223Z,18.31
2022-08-03T01:17:36.604Z,18.27
2022-08-03T01:18:36.577Z,18.19
2022-08-03T01:19:36.561Z,18.17
2022-08-03T01:20:36.562Z,18.21
2022-08-03T01:21:36.558Z,18.19
2022-08-03T01:22:36.562Z,18.15
2022-08-03T01:23:36.529Z,18.09
2022-08-03T01:24:37.531Z,18.17
2022-08-03T01:25:36.560Z,18.12
2022-08-03T01:26:36.517Z,18.04
2022-08-03T01:27:36.517Z,18.00
2022-08-03T01:28:36.521Z,17.99
2022-08-03T01:29:36.505Z,17.99
2022-08-03T01:30:36.490Z,17.97
2022-08-03T01:31:36.491Z,17.91
2022-08-03T01:32:59.421Z,17.88
2022-08-03T01:33:37.486Z,17.78
2022-08-03T01:34:36.469Z,17.85
2022-08-03T01:35:38.442Z,17.79
2022-08-03T01:36:36.451Z,17.78
2022-08-03T01:37:36.447Z,17.85
2022-08-03T01:38:36.457Z,17.78
2022-08-03T01:39:36.430Z,17.79
2022-08-03T01:40:36.429Z,17.73
2022-08-03T01:41:36.416Z,17.73
2022-08-03T01:42:36.414Z,17.76
2022-08-03T01:44:26.828Z,17.67
2022-08-03T01:44:37.413Z,17.69
2022-08-03T01:45:36.389Z,17.64
2022-08-03T01:46:36.392Z,17.64
2022-08-03T01:47:36.377Z,17.69
2022-08-03T01:48:36.364Z,17.69
2022-08-03T01:49:36.417Z,17.71
2022-08-03T01:50:36.346Z,17.67
2022-08-03T01:52:02.761Z,17.62
2022-08-03T01:52:37.340Z,17.66
2022-08-03T01:53:36.333Z,17.69
2022-08-03T01:54:36.370Z,17.59
2022-08-03T01:55:36.325Z,17.63
2022-08-03T01:56:36.317Z,17.57
2022-08-03T01:58:04.813Z,17.54
2022-08-03T01:58:37.298Z,17.53
2022-08-03T01:59:36.304Z,17.46
2022-08-03T02:00:36.297Z,17.44
2022-08-03T02:02:28.326Z,17.48
2022-08-03T02:02:37.645Z,17.46
2022-08-03T02:03:36.273Z,17.38
2022-08-03T02:04:36.252Z,17.40
2022-08-03T02:05:36.267Z,17.43
2022-08-03T02:07:01.968Z,17.35
2022-08-03T02:07:37.237Z,17.46
2022-08-03T02:08:36.232Z,17.36
2022-08-03T02:09:36.224Z,17.36
2022-08-03T02:10:36.234Z,17.40
2022-08-03T02:11:36.209Z,17.40
2022-08-03T02:12:36.212Z,17.36
2022-08-03T02:13:36.194Z,17.40
2022-08-03T02:14:36.196Z,17.38
2022-08-03T02:15:36.208Z,17.33
2022-08-03T02:16:36.173Z,17.35
2022-08-03T02:17:39.124Z,17.41
2022-08-03T02:18:36.168Z,17.36
2022-08-03T02:19:36.160Z,17.43
2022-08-03T02:20:36.160Z,17.32
2022-08-03T02:21:56.746Z,17.33
2022-08-03T02:22:37.136Z,17.33
2022-08-03T02:23:36.131Z,17.43
2022-08-03T02:24:36.134Z,17.35
2022-08-03T02:25:36.115Z,17.30
2022-08-03T02:26:36.112Z,17.32
2022-08-03T02:27:39.384Z,17.41
2022-08-03T02:28:37.091Z,17.28
2022-08-03T02:29:39.457Z,17.29
2022-08-03T02:30:36.104Z,17.26
2022-08-03T02:31:36.087Z,17.30
2022-08-03T02:32:36.078Z,17.23
2022-08-03T02:33:36.063Z,17.22
2022-08-03T02:34:36.059Z,17.17
2022-08-03T02:35:36.047Z,17.20
2022-08-03T02:36:36.052Z,17.14
2022-08-03T02:37:36.032Z,17.08
2022-08-03T02:38:36.020Z,16.98
2022-08-03T02:39:36.032Z,16.90
2022-08-03T02:40:36.020Z,16.92
2022-08-03T02:41:36.020Z,16.90
2022-08-03T02:42:36.000Z,16.80
2022-08-03T02:43:40.209Z,16.80
2022-08-03T02:44:36.987Z,16.62
2022-08-03T02:45:35.983Z,16.75
2022-08-03T02:46:36.004Z,16.75
2022-08-03T02:47:53.653Z,16.83
2022-08-03T02:48:36.964Z,16.67
2022-08-03T02:49:49.731Z,16.85
2022-08-03T02:50:36.940Z,16.75
2022-08-03T02:51:35.963Z,16.75
2022-08-03T02:52:35.927Z,16.73
2022-08-03T02:53:35.916Z,16.78
2022-08-03T02:54:35.919Z,16.71
2022-08-03T02:55:35.909Z,16.74
2022-08-03T02:56:36.916Z,16.67
2022-08-03T02:57:35.891Z,16.74
2022-08-03T02:58:35.875Z,16.78
2022-08-03T02:59:35.883Z,16.74
2022-08-03T03:00:35.883Z,16.68
2022-08-03T03:01:35.866Z,16.78
2022-08-03T03:02:35.878Z,16.80
2022-08-03T03:03:44.585Z,16.73
2022-08-03T03:04:36.843Z,16.77
2022-08-03T03:05:56.008Z,16.83
2022-08-03T03:06:36.820Z,16.60
2022-08-03T03:07:51.472Z,16.73
2022-08-03T03:08:36.815Z,16.73
2022-08-03T03:09:41.577Z,16.78
2022-08-03T03:10:36.795Z,16.81
2022-08-03T03:11:35.791Z,16.75
2022-08-03T03:12:35.787Z,16.77
2022-08-03T03:13:35.763Z,16.78
2022-08-03T03:14:35.768Z,16.77
2022-08-03T03:15:35.748Z,16.77
2022-08-03T03:16:35.755Z,16.70
2022-08-03T03:17:35.755Z,16.68
2022-08-03T03:18:35.733Z,16.75
2022-08-03T03:19:35.734Z,16.80
2022-08-03T03:20:35.729Z,16.83
2022-08-03T03:21:35.711Z,16.75
2022-08-03T03:22:35.715Z,16.74
2022-08-03T03:23:35.707Z,16.75
2022-08-03T03:24:35.703Z,16.62
2022-08-03T03:25:35.704Z,16.77
2022-08-03T03:26:37.374Z,16.80
2022-08-03T03:27:36.682Z,16.86
2022-08-03T03:28:35.682Z,16.98
2022-08-03T03:29:39.164Z,16.92
2022-08-03T03:30:35.676Z,16.89
2022-08-03T03:31:35.647Z,17.06
2022-08-03T03:32:35.648Z,17.18
2022-08-03T03:33:35.635Z,17.32
2022-08-03T03:34:35.630Z,17.22
2022-08-03T03:35:39.013Z,17.30
2022-08-03T03:36:35.618Z,17.25
2022-08-03T03:37:35.615Z,17.33
2022-08-03T03:38:35.604Z,17.30
2022-08-03T03:39:35.596Z,17.13
2022-08-03T03:40:35.598Z,17.08
2022-08-03T03:41:35.566Z,17.04
2022-08-03T03:42:35.579Z,17.11
2022-08-03T03:43:35.570Z,17.10
2022-08-03T03:44:35.550Z,17.04
2022-08-03T03:45:35.574Z,17.03
2022-08-03T03:46:35.547Z,17.03
2022-08-03T03:47:35.530Z,16.92
2022-08-03T03:48:35.510Z,17.04
2022-08-03T03:49:35.559Z,16.98
2022-08-03T03:50:35.509Z,16.93
2022-08-03T03:51:36.522Z,16.98
2022-08-03T03:52:35.495Z,17.00
2022-08-03T03:53:35.494Z,16.98
2022-08-03T03:54:35.479Z,16.99
2022-08-03T03:55:35.490Z,16.93
2022-08-03T03:56:36.474Z,16.86
2022-08-03T03:57:35.469Z,16.89
2022-08-03T03:58:35.458Z,16.83
2022-08-03T03:59:36.018Z,16.98
2022-08-03T04:00:35.490Z,16.80
2022-08-03T04:01:35.446Z,16.85
2022-08-03T04:02:35.436Z,16.88
2022-08-03T04:03:35.423Z,16.89
2022-08-03T04:04:35.421Z,16.85
2022-08-03T04:05:35.405Z,16.74
2022-08-03T04:06:35.422Z,16.81
2022-08-03T04:07:35.391Z,16.73
2022-08-03T04:08:35.390Z,16.71
2022-08-03T04:09:35.380Z,16.78
2022-08-03T04:10:35.406Z,16.78
2022-08-03T04:11:35.393Z,16.80
2022-08-03T04:12:35.358Z,16.78
2022-08-03T04:13:35.365Z,16.78
2022-08-03T04:14:35.353Z,16.80
2022-08-03T04:15:35.336Z,16.73
2022-08-03T04:16:35.325Z,16.80
2022-08-03T04:17:35.340Z,16.75
2022-08-03T04:18:35.301Z,16.68
2022-08-03T04:19:36.320Z,16.63
2022-08-03T04:20:35.299Z,16.71
2022-08-03T04:21:35.290Z,16.77
2022-08-03T04:22:35.286Z,16.78
2022-08-03T04:23:35.282Z,16.75
2022-08-03T04:24:35.278Z,16.81
2022-08-03T04:25:35.254Z,16.74
2022-08-03T04:26:35.262Z,16.70
2022-08-03T04:27:35.249Z,16.80
2022-08-03T04:28:35.245Z,16.80
2022-08-03T04:29:35.241Z,16.80
2022-08-03T04:30:35.217Z,16.83
2022-08-03T04:31:35.220Z,16.78
2022-08-03T04:32:35.206Z,16.73
2022-08-03T04:33:35.211Z,16.77
2022-08-03T04:34:35.206Z,16.71
2022-08-03T04:35:54.763Z,16.80
2022-08-03T04:36:36.182Z,16.80
2022-08-03T04:37:35.171Z,16.77
2022-08-03T04:38:35.158Z,16.86
2022-08-03T04:39:35.179Z,16.85
2022-08-03T04:40:35.149Z,16.89
2022-08-03T04:42:07.931Z,16.99
2022-08-03T04:42:36.133Z,17.00
2022-08-03T04:43:35.130Z,16.98
2022-08-03T04:44:35.130Z,17.04
2022-08-03T04:45:35.107Z,17.08
2022-08-03T04:46:35.106Z,17.07
2022-08-03T04:47:35.089Z,17.06
2022-08-03T04:48:35.089Z,17.13
2022-08-03T04:49:35.167Z,17.04
2022-08-03T04:50:35.079Z,17.10
2022-08-03T04:51:35.066Z,16.98
2022-08-03T04:52:35.050Z,17.04
2022-08-03T04:53:35.054Z,17.06
2022-08-03T04:54:35.049Z,17.11
2022-08-03T04:55:35.029Z,17.10
2022-08-03T04:56:35.030Z,17.04
2022-08-03T04:57:35.022Z,17.10
2022-08-03T04:58:35.021Z,17.11
2022-08-03T04:59:35.018Z,17.17
2022-08-03T05:00:35.030Z,17.18
2022-08-03T05:01:35.035Z,17.18
2022-08-03T05:02:34.984Z,17.10
2022-08-03T05:03:34.978Z,17.20
2022-08-03T05:04:34.979Z,17.23
2022-08-03T05:05:49.715Z,17.18
2022-08-03T05:06:35.956Z,17.32
2022-08-03T05:07:36.205Z,17.23
2022-08-03T05:08:34.940Z,17.33
2022-08-03T05:09:49.871Z,17.32
2022-08-03T05:10:35.950Z,17.43
2022-08-03T05:11:34.921Z,17.40
2022-08-03T05:12:34.914Z,17.35
2022-08-03T05:13:34.907Z,17.43
2022-08-03T05:14:34.903Z,17.53
2022-08-03T05:15:34.894Z,17.55
2022-08-03T05:16:35.895Z,17.70
2022-08-03T05:17:34.900Z,17.69
2022-08-03T05:18:34.879Z,17.78
2022-08-03T05:19:34.879Z,17.81
2022-08-03T05:20:34.867Z,17.82
2022-08-03T05:21:52.059Z,17.89
2022-08-03T05:22:35.850Z,17.89
2022-08-03T05:23:34.839Z,17.85
2022-08-03T05:24:34.827Z,17.74
2022-08-03T05:25:34.830Z,17.78
2022-08-03T05:26:34.887Z,17.91
2022-08-03T05:27:34.810Z,17.88
2022-08-03T05:28:34.802Z,17.92
2022-08-03T05:29:34.804Z,18.03
2022-08-03T05:30:34.890Z,18.13
2022-08-03T05:31:34.790Z,18.10
2022-08-03T05:32:34.783Z,18.04
2022-08-03T05:33:34.759Z,18.02
2022-08-03T05:34:34.767Z,18.00
2022-08-03T05:35:57.983Z,17.94
2022-08-03T05:36:35.779Z,17.97
2022-08-03T05:37:34.743Z,17.92
2022-08-03T05:38:35.583Z,18.12
2022-08-03T05:39:34.723Z,18.07
2022-08-03T05:40:34.714Z,18.13
2022-08-03T05:41:37.054Z,18.31
2022-08-03T05:42:34.719Z,18.37
2022-08-03T05:43:34.705Z,18.52
2022-08-03T05:44:34.698Z,18.46
2022-08-03T05:45:34.679Z,18.52
2022-08-03T05:46:35.678Z,18.54
2022-08-03T05:47:34.695Z,18.55
2022-08-03T05:48:34.667Z,18.55
2022-08-03T05:49:34.755Z,18.57
2022-08-03T05:50:34.655Z,18.61
2022-08-03T05:51:34.635Z,18.68
2022-08-03T05:52:34.635Z,18.72
2022-08-03T05:53:34.650Z,18.70
2022-08-03T05:54:55.606Z,18.62
2022-08-03T05:55:35.619Z,18.73
2022-08-03T05:56:34.614Z,18.72
2022-08-03T05:57:34.603Z,18.72
2022-08-03T05:58:34.607Z,18.76
2022-08-03T05:59:38.693Z,18.98
2022-08-03T06:00:35.586Z,19.06
2022-08-03T06:01:34.610Z,19.02
2022-08-03T06:02:34.571Z,19.28
2022-08-03T06:03:34.573Z,19.31
2022-08-03T06:04:34.575Z,19.48
2022-08-03T06:05:34.547Z,19.51
2022-08-03T06:06:35.543Z,19.53
2022-08-03T06:07:34.537Z,19.75
2022-08-03T06:08:34.527Z,19.78
2022-08-03T06:10:33.733Z,19.98
2022-08-03T06:10:38.353Z,20.10
2022-08-03T06:11:34.515Z,20.06
2022-08-03T06:12:34.511Z,20.23
2022-08-03T06:13:34.510Z,20.38
2022-08-03T06:14:34.524Z,20.43
2022-08-03T06:15:34.487Z,20.54
2022-08-03T06:16:34.483Z,20.80
2022-08-03T06:17:37.236Z,20.81
2022-08-03T06:18:34.462Z,20.93
2022-08-03T06:19:34.470Z,21.04
2022-08-03T06:20:34.455Z,21.20
2022-08-03T06:21:34.451Z,21.20
2022-08-03T06:22:34.431Z,21.26
2022-08-03T06:23:53.264Z,21.36
2022-08-03T06:24:35.438Z,21.51
2022-08-03T06:25:34.418Z,21.67
2022-08-03T06:26:34.408Z,21.90
2022-08-03T06:27:36.548Z,22.02
2022-08-03T06:28:53.303Z,22.06
2022-08-03T06:29:36.395Z,22.23
2022-08-03T06:30:34.399Z,22.32
2022-08-03T06:31:34.380Z,22.52
2022-08-03T06:32:34.362Z,22.46
2022-08-03T06:34:31.539Z,22.38
2022-08-03T06:34:35.843Z,22.47
2022-08-03T06:35:34.371Z,22.56
2022-08-03T06:36:34.343Z,22.62
2022-08-03T06:37:34.352Z,22.47
2022-08-03T06:38:34.319Z,22.25
2022-08-03T06:39:34.331Z,22.20
2022-08-03T06:40:34.331Z,22.06
2022-08-03T06:41:38.025Z,21.95
2022-08-03T06:42:34.307Z,21.98
2022-08-03T06:43:35.857Z,22.01
2022-08-03T06:44:34.299Z,21.91
2022-08-03T06:45:34.303Z,21.97
2022-08-03T06:46:34.291Z,22.06
2022-08-03T06:47:34.275Z,21.99
2022-08-03T06:48:34.282Z,22.14
2022-08-03T06:49:34.344Z,22.28
2022-08-03T06:50:34.275Z,22.38
2022-08-03T06:52:03.239Z,22.47
2022-08-03T06:52:37.879Z,22.47
2022-08-03T06:53:34.244Z,22.50
2022-08-03T06:54:34.219Z,22.64
2022-08-03T06:55:34.266Z,22.72
2022-08-03T06:56:35.220Z,23.01
2022-08-03T06:57:34.235Z,23.22
2022-08-03T06:58:34.203Z,23.35
2022-08-03T07:00:06.427Z,23.40
2022-08-03T07:00:35.187Z,23.34
2022-08-03T07:01:34.231Z,22.99
2022-08-03T07:02:34.191Z,22.72
2022-08-03T07:03:34.165Z,22.71
2022-08-03T07:04:34.167Z,22.62
2022-08-03T07:05:34.165Z,22.64
2022-08-03T07:06:34.152Z,22.52
2022-08-03T07:07:34.149Z,22.52
2022-08-03T07:08:34.621Z,22.39
2022-08-03T07:09:35.132Z,22.47
2022-08-03T07:10:34.125Z,22.50
2022-08-03T07:11:34.120Z,22.75
2022-08-03T07:12:34.108Z,22.80
2022-08-03T07:13:34.118Z,22.80
2022-08-03T07:14:34.103Z,23.02
2022-08-03T07:15:53.921Z,23.15
2022-08-03T07:16:35.087Z,23.35
2022-08-03T07:17:34.099Z,23.40
2022-08-03T07:18:34.071Z,23.53
2022-08-03T07:19:34.056Z,23.47
2022-08-03T07:20:34.061Z,23.39
2022-08-03T07:21:34.044Z,23.27
2022-08-03T07:22:34.059Z,23.32
2022-08-03T07:23:34.035Z,23.39
2022-08-03T07:24:34.024Z,23.42
2022-08-03T07:25:34.024Z,23.45
2022-08-03T07:26:34.023Z,23.60
2022-08-03T07:27:34.023Z,23.86
2022-08-03T07:28:34.004Z,23.72
2022-08-03T07:29:34.905Z,23.87
2022-08-03T07:30:33.979Z,24.01
2022-08-03T07:31:34.359Z,23.86
2022-08-03T07:32:33.984Z,23.89
2022-08-03T07:33:33.975Z,24.05
2022-08-03T07:34:33.964Z,24.14
2022-08-03T07:35:34.043Z,24.22
2022-08-03T07:36:34.435Z,24.26
2022-08-03T07:37:34.019Z,24.13
2022-08-03T07:38:33.938Z,24.31
2022-08-03T07:39:33.923Z,24.34
2022-08-03T07:40:33.930Z,24.26
2022-08-03T07:41:33.922Z,24.26
2022-08-03T07:42:33.912Z,24.38
2022-08-03T07:43:33.910Z,24.47
2022-08-03T07:44:33.899Z,24.64
2022-08-03T07:45:33.975Z,24.77
2022-08-03T07:46:33.908Z,24.90
2022-08-03T07:47:34.998Z,25.01
2022-08-03T07:48:33.879Z,25.02
2022-08-03T07:49:33.939Z,25.05
2022-08-03T07:50:33.867Z,25.16
2022-08-03T07:51:33.862Z,25.19
2022-08-03T07:52:33.839Z,25.35
2022-08-03T07:53:33.842Z,25.34
2022-08-03T07:54:34.840Z,25.47
2022-08-03T07:55:34.017Z,25.59
2022-08-03T07:56:33.818Z,25.68
2022-08-03T07:57:33.828Z,25.75
2022-08-03T07:58:33.823Z,25.65
2022-08-03T07:59:57.102Z,25.84
2022-08-03T08:00:35.796Z,25.90
2022-08-03T08:01:33.846Z,26.06
2022-08-03T08:02:33.790Z,26.32
2022-08-03T08:03:41.111Z,26.50
2022-08-03T08:04:34.786Z,26.47
2022-08-03T08:05:33.759Z,26.52
2022-08-03T08:06:33.794Z,26.58
2022-08-03T08:07:33.752Z,26.73
2022-08-03T08:08:33.726Z,26.50
2022-08-03T08:09:34.742Z,26.64
2022-08-03T08:10:33.722Z,26.83
2022-08-03T08:11:38.177Z,26.86
2022-08-03T08:12:35.726Z,26.84
2022-08-03T08:13:33.711Z,26.99
2022-08-03T08:14:33.738Z,27.13
2022-08-03T08:15:33.714Z,27.20
2022-08-03T08:16:33.695Z,27.33
2022-08-03T08:17:33.690Z,27.54
2022-08-03T08:18:33.678Z,27.70
2022-08-03T08:19:33.682Z,27.91
2022-08-03T08:20:34.900Z,27.82
2022-08-03T08:21:53.214Z,27.84
2022-08-03T08:22:34.698Z,27.98
2022-08-03T08:23:43.759Z,27.94
2022-08-03T08:24:35.737Z,27.92
2022-08-03T08:25:33.637Z,28.11
2022-08-03T08:26:33.634Z,28.40
2022-08-03T08:28:22.452Z,28.48
2022-08-03T08:28:34.654Z,28.43
2022-08-03T08:29:34.618Z,28.60
2022-08-03T08:30:33.610Z,28.81
2022-08-03T08:31:33.593Z,29.10
2022-08-03T08:32:33.607Z,29.23
2022-08-03T08:33:48.343Z,29.40
2022-08-03T08:34:34.578Z,29.50
2022-08-03T08:35:33.590Z,29.59
2022-08-03T08:36:33.566Z,29.68
2022-08-03T08:37:33.562Z,29.75
2022-08-03T08:38:33.553Z,29.72
2022-08-03T08:39:33.546Z,29.78
2022-08-03T08:40:33.554Z,29.65
2022-08-03T08:41:33.522Z,29.78
2022-08-03T08:42:33.526Z,29.72
2022-08-03T08:43:33.521Z,29.79
2022-08-03T08:44:33.514Z,30.12
2022-08-03T08:45:33.503Z,30.29
2022-08-03T08:46:33.513Z,30.29
2022-08-03T08:47:51.044Z,30.21
2022-08-03T08:48:34.485Z,30.14
2022-08-03T08:49:33.542Z,29.92
2022-08-03T08:50:33.479Z,30.12
2022-08-03T08:51:59.777Z,30.21
2022-08-03T08:52:34.643Z,30.23
2022-08-03T08:53:33.457Z,30.40
2022-08-03T08:54:33.453Z,30.03
2022-08-03T08:55:58.897Z,30.07
2022-08-03T08:56:34.477Z,30.24
2022-08-03T08:57:42.951Z,30.36
2022-08-03T08:58:35.425Z,30.78
2022-08-03T08:59:48.491Z,31.15
2022-08-03T09:00:34.418Z,31.35
2022-08-03T09:01:33.471Z,31.43
2022-08-03T09:02:33.405Z,31.50
2022-08-03T09:03:33.401Z,31.50
2022-08-03T09:04:33.393Z,31.68
2022-08-03T09:05:54.936Z,31.87
2022-08-03T09:06:35.403Z,32.32
2022-08-03T09:07:33.737Z,32.00
2022-08-03T09:08:33.385Z,32.10
2022-08-03T09:10:12.570Z,32.71
2022-08-03T09:10:34.357Z,32.70
2022-08-03T09:11:52.558Z,32.74
2022-08-03T09:12:41.539Z,32.69
2022-08-03T09:13:35.361Z,33.10
2022-08-03T09:14:36.763Z,33.68
2022-08-03T09:15:33.326Z,34.09
2022-08-03T09:16:33.326Z,33.90
2022-08-03T09:17:33.309Z,33.27
2022-08-03T09:18:33.474Z,32.80
2022-08-03T09:19:33.328Z,33.27
2022-08-03T09:20:33.306Z,33.51
2022-08-03T09:21:34.459Z,33.51
2022-08-03T09:22:33.298Z,33.68
2022-08-03T09:23:59.233Z,33.67
2022-08-03T09:24:41.535Z,33.58
2022-08-03T09:25:35.274Z,34.04
2022-08-03T09:26:33.263Z,34.05
2022-08-03T09:27:33.262Z,33.64
2022-08-03T09:28:59.943Z,33.89
2022-08-03T09:29:34.268Z,34.64
2022-08-03T09:30:35.105Z,35.07
2022-08-03T09:31:33.235Z,35.52
2022-08-03T09:32:33.229Z,35.37
2022-08-03T09:33:35.918Z,34.92
2022-08-03T09:34:33.238Z,34.61
2022-08-03T09:35:51.570Z,34.95
2022-08-03T09:36:35.188Z,35.07
2022-08-03T09:38:12.048Z,35.18
2022-08-03T09:38:34.191Z,35.23
2022-08-03T09:39:41.955Z,34.84
2022-08-03T09:40:34.189Z,34.61
2022-08-03T09:41:33.172Z,33.79
2022-08-03T09:42:33.163Z,33.30
2022-08-03T09:43:33.164Z,32.93
2022-08-03T09:44:33.156Z,32.73
2022-08-03T09:45:33.156Z,32.85
2022-08-03T09:46:33.144Z,32.91
2022-08-03T09:47:33.144Z,32.88
2022-08-03T09:48:33.139Z,33.04
2022-08-03T09:49:33.228Z,33.31
2022-08-03T09:50:33.124Z,33.89
2022-08-03T09:52:31.765Z,34.07
2022-08-03T09:52:38.801Z,34.16
2022-08-03T09:53:34.116Z,33.70
2022-08-03T09:54:33.113Z,33.60
2022-08-03T09:56:34.219Z,34.02
2022-08-03T09:56:37.080Z,34.54
2022-08-03T09:57:33.087Z,35.01
2022-08-03T09:58:33.076Z,34.92
2022-08-03T09:59:33.253Z,34.57
2022-08-03T10:00:33.073Z,34.17
2022-08-03T10:01:33.101Z,34.08
2022-08-03T10:02:33.061Z,34.11
2022-08-03T10:03:33.044Z,33.83
2022-08-03T10:04:33.056Z,33.71
2022-08-03T10:05:33.057Z,33.52
2022-08-03T10:06:33.038Z,33.89
2022-08-03T10:07:33.033Z,34.19
2022-08-03T10:08:33.017Z,34.57
2022-08-03T10:09:33.038Z,34.88
2022-08-03T10:10:33.053Z,35.57
2022-08-03T10:11:35.227Z,36.20
2022-08-03T10:12:33.004Z,35.55
2022-08-03T10:13:32.996Z,35.42
2022-08-03T10:14:33.012Z,35.36
2022-08-03T10:16:22.286Z,35.32
2022-08-03T10:16:33.971Z,35.60
2022-08-03T10:17:35.194Z,35.48
2022-08-03T10:18:33.964Z,35.10
2022-08-03T10:19:32.991Z,35.29
2022-08-03T10:20:32.989Z,35.85
2022-08-03T10:21:33.001Z,36.30
2022-08-03T10:22:32.941Z,36.27
2022-08-03T10:23:34.063Z,35.52
2022-08-03T10:24:33.957Z,35.06
2022-08-03T10:25:33.551Z,35.02
2022-08-03T10:26:32.929Z,34.72
2022-08-03T10:27:32.916Z,34.66
2022-08-03T10:28:32.921Z,34.70
2022-08-03T10:29:32.915Z,34.91
2022-08-03T10:30:33.008Z,35.03
2022-08-03T10:31:32.908Z,35.54
2022-08-03T10:32:32.964Z,35.73
2022-08-03T10:33:51.149Z,36.17
2022-08-03T10:34:33.877Z,35.93
2022-08-03T10:35:32.916Z,34.86
2022-08-03T10:36:32.875Z,34.44
2022-08-03T10:37:32.880Z,34.41
2022-08-03T10:38:32.864Z,34.70
2022-08-03T10:39:32.864Z,34.95
2022-08-03T10:40:47.969Z,34.91
2022-08-03T10:41:34.872Z,34.98
2022-08-03T10:42:32.844Z,35.33
2022-08-03T10:43:32.828Z,36.03
2022-08-03T10:44:32.832Z,36.30
2022-08-03T10:45:32.847Z,36.41
2022-08-03T10:46:32.849Z,36.39
2022-08-03T10:47:32.841Z,36.43
2022-08-03T10:48:32.817Z,35.95
2022-08-03T10:49:34.492Z,35.72
2022-08-03T10:50:32.808Z,35.06
2022-08-03T10:51:32.815Z,35.03
2022-08-03T10:52:39.513Z,35.36
2022-08-03T10:53:34.788Z,35.91
2022-08-03T10:54:32.797Z,36.21
2022-08-03T10:55:32.792Z,36.91
2022-08-03T10:56:48.134Z,37.36
2022-08-03T10:57:33.828Z,37.43
2022-08-03T10:58:32.796Z,36.94
2022-08-03T10:59:32.800Z,36.04
2022-08-03T11:00:32.820Z,35.52
2022-08-03T11:01:58.962Z,35.40
2022-08-03T11:02:33.747Z,35.73
2022-08-03T11:03:32.758Z,36.00
2022-08-03T11:04:32.756Z,36.24
2022-08-03T11:05:32.730Z,36.30
2022-08-03T11:06:37.471Z,36.56
2022-08-03T11:07:33.730Z,36.90
2022-08-03T11:08:32.738Z,37.36
2022-08-03T11:09:32.717Z,36.98
2022-08-03T11:10:32.714Z,36.95
2022-08-03T11:11:32.692Z,36.83
2022-08-03T11:12:32.886Z,36.56
2022-08-03T11:13:32.719Z,35.85
2022-08-03T11:14:32.680Z,34.96
2022-08-03T11:15:33.688Z,34.72
2022-08-03T11:16:32.683Z,35.11
2022-08-03T11:17:32.673Z,35.42
2022-08-03T11:18:32.688Z,35.93
2022-08-03T11:19:32.672Z,36.61
2022-08-03T11:20:33.652Z,37.36
2022-08-03T11:21:33.652Z,38.51
2022-08-03T11:22:32.656Z,38.79
2022-08-03T11:24:05.335Z,38.98
2022-08-03T11:24:33.644Z,39.51
2022-08-03T11:25:53.139Z,39.98
2022-08-03T11:26:33.631Z,40.26
2022-08-03T11:27:32.629Z,38.86
2022-08-03T11:28:32.619Z,38.23
2022-08-03T11:29:32.607Z,38.14
2022-08-03T11:30:32.602Z,37.56
2022-08-03T11:31:49.134Z,36.77
2022-08-03T11:32:34.595Z,36.03
2022-08-03T11:33:32.587Z,35.58
2022-08-03T11:34:32.593Z,35.77
2022-08-03T11:35:32.587Z,36.24
2022-08-03T11:36:32.782Z,36.27
2022-08-03T11:37:33.477Z,35.72
2022-08-03T11:38:33.568Z,35.44
2022-08-03T11:39:32.575Z,35.18
2022-08-03T11:40:32.572Z,35.40
2022-08-03T11:41:32.551Z,35.52
2022-08-03T11:42:33.551Z,35.03
2022-08-03T11:43:32.535Z,34.84
2022-08-03T11:44:32.532Z,34.64
2022-08-03T11:45:32.534Z,34.81
2022-08-03T11:46:32.533Z,35.21
2022-08-03T11:47:32.527Z,35.72
2022-08-03T11:48:32.510Z,36.30
2022-08-03T11:49:32.534Z,35.77
2022-08-03T11:50:32.504Z,35.03
2022-08-03T11:51:32.499Z,34.56
2022-08-03T11:52:32.516Z,34.69
2022-08-03T11:53:32.483Z,34.91
2022-08-03T11:54:33.471Z,35.28
2022-08-03T11:55:32.476Z,36.23
2022-08-03T11:56:32.475Z,37.02
2022-08-03T11:58:57.762Z,36.63
2022-08-03T11:59:10.719Z,36.97
2022-08-03T11:59:33.447Z,36.45
2022-08-03T12:00:32.457Z,36.26
2022-08-03T12:01:32.437Z,36.56
2022-08-03T12:02:32.472Z,36.99
2022-08-03T12:03:32.508Z,37.47
2022-08-03T12:04:32.421Z,37.47
2022-08-03T12:05:32.418Z,37.47
2022-08-03T12:06:32.428Z,37.35
2022-08-03T12:08:03.408Z,37.54
2022-08-03T12:08:33.424Z,37.39
2022-08-03T12:09:32.392Z,37.64
2022-08-03T12:10:32.380Z,37.29
2022-08-03T12:11:32.377Z,36.57
2022-08-03T12:12:32.387Z,35.82
2022-08-03T12:14:28.931Z,35.40
2022-08-03T12:14:48.334Z,34.81
2022-08-03T12:15:33.360Z,34.48
2022-08-03T12:16:32.343Z,34.26
2022-08-03T12:17:32.347Z,34.13
2022-08-03T12:18:32.348Z,34.14
2022-08-03T12:19:32.335Z,34.05
2022-08-03T12:20:35.402Z,34.07
2022-08-03T12:21:32.347Z,33.95
2022-08-03T12:22:32.317Z,33.71
2022-08-03T12:23:37.343Z,33.95
2022-08-03T12:24:34.304Z,33.97
2022-08-03T12:25:39.569Z,34.17
2022-08-03T12:26:33.292Z,34.08
2022-08-03T12:27:32.287Z,34.00
2022-08-03T12:28:37.673Z,33.80
2022-08-03T12:29:34.271Z,33.82
2022-08-03T12:30:32.296Z,33.68
2022-08-03T12:31:32.268Z,33.86
2022-08-03T12:32:32.256Z,33.89
2022-08-03T12:33:32.252Z,34.07
2022-08-03T12:34:32.232Z,34.51
2022-08-03T12:35:32.241Z,35.32
2022-08-03T12:36:32.244Z,35.54
2022-08-03T12:37:32.561Z,35.28
2022-08-03T12:38:32.224Z,34.88
2022-08-03T12:39:32.218Z,34.64
2022-08-03T12:40:32.215Z,34.77
2022-08-03T12:41:33.960Z,34.61
2022-08-03T12:42:32.229Z,34.31
2022-08-03T12:43:37.601Z,33.87
2022-08-03T12:44:33.196Z,33.63
2022-08-03T12:45:32.184Z,33.68
2022-08-03T12:46:32.180Z,33.57
2022-08-03T12:47:32.188Z,33.39
2022-08-03T12:48:32.172Z,33.58
2022-08-03T12:49:32.202Z,33.76
2022-08-03T12:50:32.256Z,33.80
2022-08-03T12:51:32.334Z,33.80
2022-08-03T12:52:33.516Z,33.78